sensor_id;sensor_type;location;lat;lon;timestamp;P1;durP1;ratioP1;P2;durP2;ratioP2
64282;SDS011;50497;50.720;-2.084;2024-03-22T00:01:40;14.57;;;6.78;;
64282;SDS011;50497;50.720;-2.084;2024-03-22T00:04:06;15.95;;;6.82;;
64282;SDS011;50497;50.720;-2.084;2024-03-22T00:06:31;17.38;;;6.60;;
64282;SDS011;50497;50.720;-2.084;2024-03-22T00:08:56;17.38;;;6.68;;
64282;SDS011;50497;50.720;-2.084;2024-03-22T00:11:22;18.80;;;7.55;;
64282;SDS011;50497;50.720;-2.084;2024-03-22T00:13:47;16.27;;;6.05;;
64282;SDS011;50497;50.720;-2.084;2024-03-22T00:16:13;15.82;;;6.32;;
64282;SDS011;50497;50.720;-2.084;2024-03-22T00:18:38;15.15;;;6.05;;
64282;SDS011;50497;50.720;-2.084;2024-03-22T00:21:03;14.60;;;5.25;;
64282;SDS011;50497;50.720;-2.084;2024-03-22T00:23:29;15.88;;;5.43;;
64282;SDS011;50497;50.720;-2.084;2024-03-22T00:25:55;16.00;;;6.00;;
64282;SDS011;50497;50.720;-2.084;2024-03-22T00:28:21;14.02;;;5.38;;
64282;SDS011;50497;50.720;-2.084;2024-03-22T00:30:46;13.63;;;4.95;;
64282;SDS011;50497;50.720;-2.084;2024-03-22T00:33:12;12.20;;;4.97;;
64282;SDS011;50497;50.720;-2.084;2024-03-22T00:35:37;13.23;;;5.55;;
64282;SDS011;50497;50.720;-2.084;2024-03-22T00:38:03;12.40;;;5.30;;
64282;SDS011;50497;50.720;-2.084;2024-03-22T00:40:28;11.88;;;5.15;;
64282;SDS011;50497;50.720;-2.084;2024-03-22T00:42:54;13.00;;;5.28;;
64282;SDS011;50497;50.720;-2.084;2024-03-22T00:45:19;11.45;;;5.15;;
64282;SDS011;50497;50.720;-2.084;2024-03-22T00:47:44;11.73;;;5.30;;
64282;SDS011;50497;50.720;-2.084;2024-03-22T00:50:10;12.70;;;5.45;;
64282;SDS011;50497;50.720;-2.084;2024-03-22T00:52:35;12.63;;;5.38;;
64282;SDS011;50497;50.720;-2.084;2024-03-22T00:55:00;11.48;;;5.57;;
64282;SDS011;50497;50.720;-2.084;2024-03-22T00:57:26;12.52;;;4.82;;
64282;SDS011;50497;50.720;-2.084;2024-03-22T00:59:51;11.35;;;4.95;;
64282;SDS011;50497;50.720;-2.084;2024-03-22T01:02:17;13.27;;;5.07;;
64282;SDS011;50497;50.720;-2.084;2024-03-22T01:04:42;14.38;;;5.32;;
64282;SDS011;50497;50.720;-2.084;2024-03-22T01:07:07;11.80;;;4.55;;
64282;SDS011;50497;50.720;-2.084;2024-03-22T01:09:33;14.48;;;4.95;;
64282;SDS011;50497;50.720;-2.084;2024-03-22T01:11:58;16.20;;;5.15;;
64282;SDS011;50497;50.720;-2.084;2024-03-22T01:14:24;13.95;;;5.70;;
64282;SDS011;50497;50.720;-2.084;2024-03-22T01:16:49;13.38;;;5.38;;
64282;SDS011;50497;50.720;-2.084;2024-03-22T01:19:15;13.15;;;5.43;;
64282;SDS011;50497;50.720;-2.084;2024-03-22T01:21:40;17.63;;;5.40;;
64282;SDS011;50497;50.720;-2.084;2024-03-22T01:24:05;12.05;;;5.45;;
64282;SDS011;50497;50.720;-2.084;2024-03-22T01:26:31;13.77;;;5.00;;
64282;SDS011;50497;50.720;-2.084;2024-03-22T01:28:56;12.93;;;5.05;;
64282;SDS011;50497;50.720;-2.084;2024-03-22T01:31:21;12.20;;;4.90;;
64282;SDS011;50497;50.720;-2.084;2024-03-22T01:33:47;12.13;;;4.50;;
64282;SDS011;50497;50.720;-2.084;2024-03-22T01:36:12;13.60;;;5.28;;
64282;SDS011;50497;50.720;-2.084;2024-03-22T01:38:38;13.68;;;4.65;;
64282;SDS011;50497;50.720;-2.084;2024-03-22T01:41:03;12.75;;;4.88;;
64282;SDS011;50497;50.720;-2.084;2024-03-22T01:43:29;13.18;;;4.68;;
64282;SDS011;50497;50.720;-2.084;2024-03-22T01:45:54;12.20;;;4.57;;
64282;SDS011;50497;50.720;-2.084;2024-03-22T01:48:20;13.43;;;4.88;;
64282;SDS011;50497;50.720;-2.084;2024-03-22T01:50:46;10.43;;;4.68;;
64282;SDS011;50497;50.720;-2.084;2024-03-22T01:53:11;10.82;;;4.00;;
64282;SDS011;50497;50.720;-2.084;2024-03-22T01:55:37;11.63;;;4.53;;
64282;SDS011;50497;50.720;-2.084;2024-03-22T01:58:03;13.25;;;4.55;;
64282;SDS011;50497;50.720;-2.084;2024-03-22T02:00:29;14.98;;;4.35;;
64282;SDS011;50497;50.720;-2.084;2024-03-22T02:02:55;12.25;;;4.18;;
64282;SDS011;50497;50.720;-2.084;2024-03-22T02:05:21;10.98;;;4.20;;
64282;SDS011;50497;50.720;-2.084;2024-03-22T02:07:46;11.25;;;4.60;;
64282;SDS011;50497;50.720;-2.084;2024-03-22T02:10:13;10.45;;;3.80;;
64282;SDS011;50497;50.720;-2.084;2024-03-22T02:12:39;12.02;;;3.83;;
64282;SDS011;50497;50.720;-2.084;2024-03-22T02:15:05;8.65;;;3.60;;
64282;SDS011;50497;50.720;-2.084;2024-03-22T02:17:32;12.15;;;3.90;;
64282;SDS011;50497;50.720;-2.084;2024-03-22T02:19:57;10.02;;;3.03;;
64282;SDS011;50497;50.720;-2.084;2024-03-22T02:22:23;9.07;;;3.50;;
64282;SDS011;50497;50.720;-2.084;2024-03-22T02:24:49;11.25;;;3.85;;
64282;SDS011;50497;50.720;-2.084;2024-03-22T02:27:14;10.77;;;3.33;;
64282;SDS011;50497;50.720;-2.084;2024-03-22T02:29:39;11.73;;;4.20;;
64282;SDS011;50497;50.720;-2.084;2024-03-22T02:32:05;9.95;;;3.90;;
64282;SDS011;50497;50.720;-2.084;2024-03-22T02:34:31;9.00;;;3.50;;
64282;SDS011;50497;50.720;-2.084;2024-03-22T02:36:56;10.35;;;3.80;;
64282;SDS011;50497;50.720;-2.084;2024-03-22T02:39:21;9.25;;;3.30;;
64282;SDS011;50497;50.720;-2.084;2024-03-22T02:41:47;10.38;;;3.65;;
64282;SDS011;50497;50.720;-2.084;2024-03-22T02:44:12;13.60;;;4.70;;
64282;SDS011;50497;50.720;-2.084;2024-03-22T02:46:40;15.48;;;4.95;;
64282;SDS011;50497;50.720;-2.084;2024-03-22T02:49:06;16.33;;;5.15;;
64282;SDS011;50497;50.720;-2.084;2024-03-22T02:51:31;9.77;;;4.05;;
64282;SDS011;50497;50.720;-2.084;2024-03-22T02:53:57;10.57;;;3.28;;
64282;SDS011;50497;50.720;-2.084;2024-03-22T02:56:22;14.48;;;3.50;;
64282;SDS011;50497;50.720;-2.084;2024-03-22T02:58:51;8.38;;;3.50;;
64282;SDS011;50497;50.720;-2.084;2024-03-22T03:01:16;9.60;;;3.05;;
64282;SDS011;50497;50.720;-2.084;2024-03-22T03:03:42;10.57;;;3.45;;
64282;SDS011;50497;50.720;-2.084;2024-03-22T03:06:07;7.40;;;2.80;;
64282;SDS011;50497;50.720;-2.084;2024-03-22T03:08:33;7.88;;;2.72;;
64282;SDS011;50497;50.720;-2.084;2024-03-22T03:10:59;9.38;;;2.88;;
64282;SDS011;50497;50.720;-2.084;2024-03-22T03:13:24;18.40;;;4.43;;
64282;SDS011;50497;50.720;-2.084;2024-03-22T03:15:51;8.95;;;3.40;;
64282;SDS011;50497;50.720;-2.084;2024-03-22T03:18:16;10.63;;;3.42;;
64282;SDS011;50497;50.720;-2.084;2024-03-22T03:20:41;7.85;;;3.10;;
64282;SDS011;50497;50.720;-2.084;2024-03-22T03:23:07;9.20;;;3.08;;
64282;SDS011;50497;50.720;-2.084;2024-03-22T03:25:33;8.27;;;2.92;;
64282;SDS011;50497;50.720;-2.084;2024-03-22T03:27:58;7.72;;;3.10;;
64282;SDS011;50497;50.720;-2.084;2024-03-22T03:30:24;8.05;;;3.28;;
64282;SDS011;50497;50.720;-2.084;2024-03-22T03:32:49;8.70;;;2.80;;
64282;SDS011;50497;50.720;-2.084;2024-03-22T03:35:14;11.20;;;3.55;;
64282;SDS011;50497;50.720;-2.084;2024-03-22T03:37:40;11.05;;;3.65;;
64282;SDS011;50497;50.720;-2.084;2024-03-22T03:40:06;9.15;;;2.97;;
64282;SDS011;50497;50.720;-2.084;2024-03-22T03:42:32;9.57;;;3.50;;
64282;SDS011;50497;50.720;-2.084;2024-03-22T03:44:57;11.85;;;3.60;;
64282;SDS011;50497;50.720;-2.084;2024-03-22T03:47:22;11.48;;;3.78;;
64282;SDS011;50497;50.720;-2.084;2024-03-22T03:49:48;12.07;;;4.13;;
64282;SDS011;50497;50.720;-2.084;2024-03-22T03:52:14;8.93;;;3.53;;
64282;SDS011;50497;50.720;-2.084;2024-03-22T03:54:39;10.32;;;3.20;;
64282;SDS011;50497;50.720;-2.084;2024-03-22T03:57:05;10.93;;;3.13;;
64282;SDS011;50497;50.720;-2.084;2024-03-22T03:59:30;7.97;;;3.08;;
64282;SDS011;50497;50.720;-2.084;2024-03-22T04:01:56;11.63;;;3.60;;
64282;SDS011;50497;50.720;-2.084;2024-03-22T04:04:21;10.23;;;3.10;;
64282;SDS011;50497;50.720;-2.084;2024-03-22T04:06:47;10.52;;;3.50;;
64282;SDS011;50497;50.720;-2.084;2024-03-22T04:09:12;13.05;;;4.03;;
64282;SDS011;50497;50.720;-2.084;2024-03-22T04:11:38;10.07;;;3.50;;
64282;SDS011;50497;50.720;-2.084;2024-03-22T04:14:04;12.18;;;3.65;;
64282;SDS011;50497;50.720;-2.084;2024-03-22T04:16:30;12.90;;;3.50;;
64282;SDS011;50497;50.720;-2.084;2024-03-22T04:21:22;11.20;;;3.83;;
64282;SDS011;50497;50.720;-2.084;2024-03-22T04:23:47;11.63;;;4.20;;
64282;SDS011;50497;50.720;-2.084;2024-03-22T04:26:13;10.48;;;4.30;;
64282;SDS011;50497;50.720;-2.084;2024-03-22T04:28:38;12.02;;;4.43;;
64282;SDS011;50497;50.720;-2.084;2024-03-22T04:31:04;13.05;;;4.20;;
64282;SDS011;50497;50.720;-2.084;2024-03-22T04:33:31;11.82;;;4.05;;
64282;SDS011;50497;50.720;-2.084;2024-03-22T04:35:58;14.75;;;4.07;;
64282;SDS011;50497;50.720;-2.084;2024-03-22T04:38:27;14.98;;;4.47;;
64282;SDS011;50497;50.720;-2.084;2024-03-22T04:40:54;13.05;;;4.68;;
64282;SDS011;50497;50.720;-2.084;2024-03-22T04:43:21;13.68;;;4.60;;
64282;SDS011;50497;50.720;-2.084;2024-03-22T04:45:47;13.75;;;5.00;;
64282;SDS011;50497;50.720;-2.084;2024-03-22T04:48:15;11.93;;;4.85;;
64282;SDS011;50497;50.720;-2.084;2024-03-22T04:50:42;12.75;;;4.45;;
64282;SDS011;50497;50.720;-2.084;2024-03-22T04:53:07;7.50;;;3.45;;
64282;SDS011;50497;50.720;-2.084;2024-03-22T04:55:33;6.43;;;2.55;;
64282;SDS011;50497;50.720;-2.084;2024-03-22T04:57:59;6.32;;;2.38;;
64282;SDS011;50497;50.720;-2.084;2024-03-22T05:00:24;7.45;;;2.83;;
64282;SDS011;50497;50.720;-2.084;2024-03-22T05:02:50;6.30;;;2.55;;
64282;SDS011;50497;50.720;-2.084;2024-03-22T05:05:16;2.42;;;1.67;;
64282;SDS011;50497;50.720;-2.084;2024-03-22T05:07:42;12.25;;;4.35;;
64282;SDS011;50497;50.720;-2.084;2024-03-22T05:10:07;15.38;;;4.63;;
64282;SDS011;50497;50.720;-2.084;2024-03-22T05:14:59;16.95;;;5.28;;
64282;SDS011;50497;50.720;-2.084;2024-03-22T05:17:25;13.55;;;4.55;;
64282;SDS011;50497;50.720;-2.084;2024-03-22T05:19:50;12.70;;;5.03;;
64282;SDS011;50497;50.720;-2.084;2024-03-22T05:22:15;13.52;;;5.05;;
64282;SDS011;50497;50.720;-2.084;2024-03-22T05:24:44;9.65;;;4.00;;
64282;SDS011;50497;50.720;-2.084;2024-03-22T05:27:09;12.05;;;3.65;;
64282;SDS011;50497;50.720;-2.084;2024-03-22T05:29:35;8.45;;;3.88;;
64282;SDS011;50497;50.720;-2.084;2024-03-22T05:32:00;7.22;;;3.03;;
64282;SDS011;50497;50.720;-2.084;2024-03-22T05:34:25;8.70;;;2.97;;
64282;SDS011;50497;50.720;-2.084;2024-03-22T05:36:51;7.70;;;3.13;;
64282;SDS011;50497;50.720;-2.084;2024-03-22T05:39:16;7.10;;;2.80;;
64282;SDS011;50497;50.720;-2.084;2024-03-22T05:41:41;7.40;;;2.92;;
64282;SDS011;50497;50.720;-2.084;2024-03-22T05:44:07;6.53;;;3.15;;
64282;SDS011;50497;50.720;-2.084;2024-03-22T05:46:32;7.57;;;2.90;;
64282;SDS011;50497;50.720;-2.084;2024-03-22T05:48:58;7.32;;;3.10;;
64282;SDS011;50497;50.720;-2.084;2024-03-22T05:51:24;7.00;;;3.00;;
64282;SDS011;50497;50.720;-2.084;2024-03-22T05:53:50;7.47;;;2.95;;
64282;SDS011;50497;50.720;-2.084;2024-03-22T05:56:15;5.55;;;2.63;;
64282;SDS011;50497;50.720;-2.084;2024-03-22T05:58:41;7.90;;;3.10;;
64282;SDS011;50497;50.720;-2.084;2024-03-22T06:01:06;7.10;;;3.28;;
64282;SDS011;50497;50.720;-2.084;2024-03-22T06:03:32;7.45;;;3.33;;
64282;SDS011;50497;50.720;-2.084;2024-03-22T06:05:58;7.35;;;3.30;;
64282;SDS011;50497;50.720;-2.084;2024-03-22T06:08:25;8.10;;;3.70;;
64282;SDS011;50497;50.720;-2.084;2024-03-22T06:10:54;9.10;;;4.15;;
64282;SDS011;50497;50.720;-2.084;2024-03-22T06:13:23;11.10;;;4.80;;
64282;SDS011;50497;50.720;-2.084;2024-03-22T06:15:48;10.63;;;4.47;;
64282;SDS011;50497;50.720;-2.084;2024-03-22T06:18:14;11.63;;;4.78;;
64282;SDS011;50497;50.720;-2.084;2024-03-22T06:20:40;12.73;;;4.78;;
64282;SDS011;50497;50.720;-2.084;2024-03-22T06:23:07;8.85;;;3.72;;
64282;SDS011;50497;50.720;-2.084;2024-03-22T06:25:33;10.15;;;4.05;;
64282;SDS011;50497;50.720;-2.084;2024-03-22T06:27:59;12.48;;;5.35;;
64282;SDS011;50497;50.720;-2.084;2024-03-22T06:30:24;14.65;;;5.28;;
64282;SDS011;50497;50.720;-2.084;2024-03-22T06:32:49;11.82;;;5.70;;
64282;SDS011;50497;50.720;-2.084;2024-03-22T06:35:15;22.77;;;6.15;;
64282;SDS011;50497;50.720;-2.084;2024-03-22T06:37:40;16.40;;;6.38;;
64282;SDS011;50497;50.720;-2.084;2024-03-22T06:40:07;19.75;;;7.07;;
64282;SDS011;50497;50.720;-2.084;2024-03-22T06:42:33;15.25;;;5.88;;
64282;SDS011;50497;50.720;-2.084;2024-03-22T06:44:58;18.65;;;6.38;;
64282;SDS011;50497;50.720;-2.084;2024-03-22T06:47:23;16.92;;;6.47;;
64282;SDS011;50497;50.720;-2.084;2024-03-22T06:49:49;11.63;;;4.95;;
64282;SDS011;50497;50.720;-2.084;2024-03-22T06:52:14;15.05;;;5.25;;
64282;SDS011;50497;50.720;-2.084;2024-03-22T06:54:40;16.05;;;5.78;;
64282;SDS011;50497;50.720;-2.084;2024-03-22T06:57:06;11.90;;;5.18;;
64282;SDS011;50497;50.720;-2.084;2024-03-22T06:59:31;14.30;;;5.63;;
64282;SDS011;50497;50.720;-2.084;2024-03-22T07:01:57;15.90;;;5.45;;
64282;SDS011;50497;50.720;-2.084;2024-03-22T07:04:22;19.50;;;6.85;;
64282;SDS011;50497;50.720;-2.084;2024-03-22T07:06:48;18.30;;;6.45;;
64282;SDS011;50497;50.720;-2.084;2024-03-22T07:09:13;21.23;;;8.00;;
64282;SDS011;50497;50.720;-2.084;2024-03-22T07:11:39;18.40;;;6.30;;
64282;SDS011;50497;50.720;-2.084;2024-03-22T07:14:05;18.75;;;7.65;;
64282;SDS011;50497;50.720;-2.084;2024-03-22T07:16:30;14.32;;;6.90;;
64282;SDS011;50497;50.720;-2.084;2024-03-22T07:18:55;23.25;;;8.10;;
64282;SDS011;50497;50.720;-2.084;2024-03-22T07:21:21;18.85;;;6.75;;
64282;SDS011;50497;50.720;-2.084;2024-03-22T07:23:52;20.55;;;7.45;;
64282;SDS011;50497;50.720;-2.084;2024-03-22T07:26:17;18.85;;;7.82;;
64282;SDS011;50497;50.720;-2.084;2024-03-22T07:28:43;24.08;;;8.05;;
64282;SDS011;50497;50.720;-2.084;2024-03-22T07:31:08;22.33;;;8.13;;
64282;SDS011;50497;50.720;-2.084;2024-03-22T07:33:34;19.45;;;8.43;;
64282;SDS011;50497;50.720;-2.084;2024-03-22T07:36:02;22.92;;;8.40;;
64282;SDS011;50497;50.720;-2.084;2024-03-22T07:38:28;18.90;;;7.53;;
64282;SDS011;50497;50.720;-2.084;2024-03-22T07:40:54;15.27;;;6.47;;
64282;SDS011;50497;50.720;-2.084;2024-03-22T07:43:19;19.08;;;7.60;;
64282;SDS011;50497;50.720;-2.084;2024-03-22T07:45:45;23.20;;;8.05;;
64282;SDS011;50497;50.720;-2.084;2024-03-22T07:48:10;13.00;;;5.85;;
64282;SDS011;50497;50.720;-2.084;2024-03-22T07:50:36;12.48;;;6.28;;
64282;SDS011;50497;50.720;-2.084;2024-03-22T07:53:02;17.85;;;7.35;;
64282;SDS011;50497;50.720;-2.084;2024-03-22T07:55:27;16.00;;;7.10;;
64282;SDS011;50497;50.720;-2.084;2024-03-22T07:57:52;17.65;;;6.65;;
64282;SDS011;50497;50.720;-2.084;2024-03-22T08:00:18;14.48;;;6.30;;
64282;SDS011;50497;50.720;-2.084;2024-03-22T08:02:44;15.48;;;6.25;;
64282;SDS011;50497;50.720;-2.084;2024-03-22T08:05:10;12.48;;;5.40;;
64282;SDS011;50497;50.720;-2.084;2024-03-22T08:07:35;14.40;;;6.07;;
64282;SDS011;50497;50.720;-2.084;2024-03-22T08:10:01;12.43;;;5.60;;
64282;SDS011;50497;50.720;-2.084;2024-03-22T08:12:27;11.77;;;5.40;;
64282;SDS011;50497;50.720;-2.084;2024-03-22T08:17:18;11.60;;;5.37;;
64282;SDS011;50497;50.720;-2.084;2024-03-22T08:19:44;11.40;;;5.35;;
64282;SDS011;50497;50.720;-2.084;2024-03-22T08:22:10;15.20;;;5.47;;
64282;SDS011;50497;50.720;-2.084;2024-03-22T08:24:36;12.23;;;5.47;;
64282;SDS011;50497;50.720;-2.084;2024-03-22T08:29:28;12.52;;;5.00;;
64282;SDS011;50497;50.720;-2.084;2024-03-22T08:31:54;10.80;;;4.93;;
64282;SDS011;50497;50.720;-2.084;2024-03-22T08:34:19;10.38;;;4.50;;
64282;SDS011;50497;50.720;-2.084;2024-03-22T08:36:44;9.05;;;4.30;;
64282;SDS011;50497;50.720;-2.084;2024-03-22T08:39:10;8.52;;;3.95;;
64282;SDS011;50497;50.720;-2.084;2024-03-22T08:41:38;8.35;;;3.50;;
64282;SDS011;50497;50.720;-2.084;2024-03-22T08:44:03;7.38;;;3.50;;
64282;SDS011;50497;50.720;-2.084;2024-03-22T08:46:29;6.78;;;3.28;;
64282;SDS011;50497;50.720;-2.084;2024-03-22T08:48:56;6.95;;;3.20;;
64282;SDS011;50497;50.720;-2.084;2024-03-22T08:51:22;6.25;;;2.75;;
64282;SDS011;50497;50.720;-2.084;2024-03-22T08:53:48;3.10;;;1.35;;
64282;SDS011;50497;50.720;-2.084;2024-03-22T08:56:13;0.00;;;0.00;;
64282;SDS011;50497;50.720;-2.084;2024-03-22T08:58:39;0.00;;;0.00;;
64282;SDS011;50497;50.720;-2.084;2024-03-22T09:01:05;0.20;;;0.13;;
64282;SDS011;50497;50.720;-2.084;2024-03-22T09:03:31;0.00;;;0.00;;
64282;SDS011;50497;50.720;-2.084;2024-03-22T09:05:56;0.05;;;0.05;;
64282;SDS011;50497;50.720;-2.084;2024-03-22T09:08:22;1.17;;;0.43;;
64282;SDS011;50497;50.720;-2.084;2024-03-22T09:10:47;3.60;;;1.65;;
64282;SDS011;50497;50.720;-2.084;2024-03-22T09:13:13;3.85;;;1.50;;
64282;SDS011;50497;50.720;-2.084;2024-03-22T09:15:39;2.72;;;1.27;;
64282;SDS011;50497;50.720;-2.084;2024-03-22T09:18:04;0.20;;;0.20;;
64282;SDS011;50497;50.720;-2.084;2024-03-22T09:20:31;0.93;;;0.90;;
64282;SDS011;50497;50.720;-2.084;2024-03-22T09:22:57;0.32;;;0.32;;
64282;SDS011;50497;50.720;-2.084;2024-03-22T09:25:23;0.20;;;0.20;;
64282;SDS011;50497;50.720;-2.084;2024-03-22T09:27:49;0.57;;;0.57;;
64282;SDS011;50497;50.720;-2.084;2024-03-22T09:30:15;0.50;;;0.50;;
64282;SDS011;50497;50.720;-2.084;2024-03-22T09:32:40;1.20;;;0.60;;
64282;SDS011;50497;50.720;-2.084;2024-03-22T09:35:07;0.90;;;0.70;;
64282;SDS011;50497;50.720;-2.084;2024-03-22T09:37:33;0.43;;;0.43;;
64282;SDS011;50497;50.720;-2.084;2024-03-22T09:39:58;0.40;;;0.40;;
64282;SDS011;50497;50.720;-2.084;2024-03-22T09:42:24;1.05;;;0.90;;
64282;SDS011;50497;50.720;-2.084;2024-03-22T09:44:51;2.47;;;1.02;;
64282;SDS011;50497;50.720;-2.084;2024-03-22T09:47:16;4.43;;;1.45;;
64282;SDS011;50497;50.720;-2.084;2024-03-22T09:49:43;3.17;;;1.15;;
64282;SDS011;50497;50.720;-2.084;2024-03-22T09:52:13;4.70;;;1.30;;
64282;SDS011;50497;50.720;-2.084;2024-03-22T09:54:43;3.90;;;1.20;;
64282;SDS011;50497;50.720;-2.084;2024-03-22T09:57:09;4.63;;;1.40;;
64282;SDS011;50497;50.720;-2.084;2024-03-22T09:59:40;3.95;;;1.50;;
64282;SDS011;50497;50.720;-2.084;2024-03-22T10:02:06;6.28;;;1.45;;
64282;SDS011;50497;50.720;-2.084;2024-03-22T10:04:36;8.40;;;1.70;;
64282;SDS011;50497;50.720;-2.084;2024-03-22T10:07:02;5.40;;;1.70;;
64282;SDS011;50497;50.720;-2.084;2024-03-22T10:09:31;7.25;;;1.95;;
64282;SDS011;50497;50.720;-2.084;2024-03-22T10:11:57;6.55;;;2.08;;
64282;SDS011;50497;50.720;-2.084;2024-03-22T10:14:23;6.82;;;1.70;;
64282;SDS011;50497;50.720;-2.084;2024-03-22T10:16:52;7.65;;;2.00;;
64282;SDS011;50497;50.720;-2.084;2024-03-22T10:19:19;6.80;;;2.30;;
64282;SDS011;50497;50.720;-2.084;2024-03-22T10:21:45;6.55;;;1.90;;
64282;SDS011;50497;50.720;-2.084;2024-03-22T10:24:11;8.40;;;2.20;;
64282;SDS011;50497;50.720;-2.084;2024-03-22T10:26:36;5.40;;;2.15;;
64282;SDS011;50497;50.720;-2.084;2024-03-22T10:29:05;6.28;;;2.15;;
64282;SDS011;50497;50.720;-2.084;2024-03-22T10:31:31;6.15;;;2.47;;
64282;SDS011;50497;50.720;-2.084;2024-03-22T10:33:57;4.43;;;1.73;;
64282;SDS011;50497;50.720;-2.084;2024-03-22T10:36:24;6.03;;;2.10;;
64282;SDS011;50497;50.720;-2.084;2024-03-22T10:38:51;4.88;;;2.00;;
64282;SDS011;50497;50.720;-2.084;2024-03-22T10:41:19;5.10;;;1.73;;
64282;SDS011;50497;50.720;-2.084;2024-03-22T10:43:45;4.25;;;1.70;;
64282;SDS011;50497;50.720;-2.084;2024-03-22T10:46:10;3.97;;;1.60;;
64282;SDS011;50497;50.720;-2.084;2024-03-22T10:48:37;3.92;;;1.50;;
64282;SDS011;50497;50.720;-2.084;2024-03-22T10:51:04;2.90;;;1.50;;
64282;SDS011;50497;50.720;-2.084;2024-03-22T10:53:31;2.85;;;1.20;;
64282;SDS011;50497;50.720;-2.084;2024-03-22T10:55:57;2.65;;;1.20;;
64282;SDS011;50497;50.720;-2.084;2024-03-22T10:58:25;1.58;;;0.95;;
64282;SDS011;50497;50.720;-2.084;2024-03-22T11:00:51;1.33;;;0.85;;
64282;SDS011;50497;50.720;-2.084;2024-03-22T11:05:46;1.55;;;0.65;;
64282;SDS011;50497;50.720;-2.084;2024-03-22T11:10:39;0.32;;;0.32;;
64282;SDS011;50497;50.720;-2.084;2024-03-22T11:13:05;0.32;;;0.32;;
64282;SDS011;50497;50.720;-2.084;2024-03-22T11:15:33;0.60;;;0.45;;
64282;SDS011;50497;50.720;-2.084;2024-03-22T11:18:00;0.30;;;0.30;;
64282;SDS011;50497;50.720;-2.084;2024-03-22T11:20:28;0.17;;;0.17;;
64282;SDS011;50497;50.720;-2.084;2024-03-22T11:22:56;0.20;;;0.20;;
64282;SDS011;50497;50.720;-2.084;2024-03-22T11:25:21;0.30;;;0.30;;
64282;SDS011;50497;50.720;-2.084;2024-03-22T11:27:47;0.40;;;0.40;;
64282;SDS011;50497;50.720;-2.084;2024-03-22T11:30:12;0.35;;;0.32;;
64282;SDS011;50497;50.720;-2.084;2024-03-22T11:32:38;0.65;;;0.38;;
64282;SDS011;50497;50.720;-2.084;2024-03-22T11:35:10;0.40;;;0.40;;
64282;SDS011;50497;50.720;-2.084;2024-03-22T11:37:39;0.30;;;0.30;;
64282;SDS011;50497;50.720;-2.084;2024-03-22T11:40:06;0.50;;;0.50;;
64282;SDS011;50497;50.720;-2.084;2024-03-22T11:42:35;0.40;;;0.40;;
64282;SDS011;50497;50.720;-2.084;2024-03-22T11:45:12;0.30;;;0.30;;
64282;SDS011;50497;50.720;-2.084;2024-03-22T11:47:40;0.20;;;0.20;;
64282;SDS011;50497;50.720;-2.084;2024-03-22T11:50:05;0.75;;;0.60;;
64282;SDS011;50497;50.720;-2.084;2024-03-22T11:52:31;0.40;;;0.40;;
64282;SDS011;50497;50.720;-2.084;2024-03-22T11:54:57;0.40;;;0.40;;
64282;SDS011;50497;50.720;-2.084;2024-03-22T11:57:22;0.50;;;0.50;;
64282;SDS011;50497;50.720;-2.084;2024-03-22T11:59:49;0.50;;;0.50;;
64282;SDS011;50497;50.720;-2.084;2024-03-22T12:02:15;0.70;;;0.70;;
64282;SDS011;50497;50.720;-2.084;2024-03-22T12:04:50;0.40;;;0.40;;
64282;SDS011;50497;50.720;-2.084;2024-03-22T12:07:16;0.50;;;0.50;;
64282;SDS011;50497;50.720;-2.084;2024-03-22T12:09:42;0.30;;;0.30;;
64282;SDS011;50497;50.720;-2.084;2024-03-22T12:14:35;0.20;;;0.20;;
64282;SDS011;50497;50.720;-2.084;2024-03-22T12:17:01;0.13;;;0.13;;
64282;SDS011;50497;50.720;-2.084;2024-03-22T12:19:27;0.10;;;0.10;;
64282;SDS011;50497;50.720;-2.084;2024-03-22T12:21:52;0.10;;;0.10;;
64282;SDS011;50497;50.720;-2.084;2024-03-22T12:24:18;0.10;;;0.10;;
64282;SDS011;50497;50.720;-2.084;2024-03-22T12:26:43;0.10;;;0.10;;
64282;SDS011;50497;50.720;-2.084;2024-03-22T12:29:09;0.00;;;0.00;;
64282;SDS011;50497;50.720;-2.084;2024-03-22T12:31:37;0.10;;;0.10;;
64282;SDS011;50497;50.720;-2.084;2024-03-22T12:34:03;0.10;;;0.10;;
64282;SDS011;50497;50.720;-2.084;2024-03-22T12:36:28;0.20;;;0.20;;
64282;SDS011;50497;50.720;-2.084;2024-03-22T12:38:53;0.10;;;0.10;;
64282;SDS011;50497;50.720;-2.084;2024-03-22T12:41:19;0.10;;;0.10;;
64282;SDS011;50497;50.720;-2.084;2024-03-22T12:43:45;0.20;;;0.20;;
64282;SDS011;50497;50.720;-2.084;2024-03-22T12:46:10;0.10;;;0.10;;
64282;SDS011;50497;50.720;-2.084;2024-03-22T12:48:36;0.10;;;0.10;;
64282;SDS011;50497;50.720;-2.084;2024-03-22T12:51:01;0.00;;;0.00;;
64282;SDS011;50497;50.720;-2.084;2024-03-22T12:53:27;0.15;;;0.15;;
64282;SDS011;50497;50.720;-2.084;2024-03-22T12:55:52;0.10;;;0.10;;
64282;SDS011;50497;50.720;-2.084;2024-03-22T12:58:18;0.00;;;0.00;;
64282;SDS011;50497;50.720;-2.084;2024-03-22T13:00:43;0.08;;;0.08;;
64282;SDS011;50497;50.720;-2.084;2024-03-22T13:03:09;0.20;;;0.20;;
64282;SDS011;50497;50.720;-2.084;2024-03-22T13:05:36;0.10;;;0.10;;
64282;SDS011;50497;50.720;-2.084;2024-03-22T13:08:02;0.20;;;0.20;;
64282;SDS011;50497;50.720;-2.084;2024-03-22T13:10:28;0.10;;;0.10;;
64282;SDS011;50497;50.720;-2.084;2024-03-22T13:12:53;0.10;;;0.10;;
64282;SDS011;50497;50.720;-2.084;2024-03-22T13:15:18;0.10;;;0.10;;
64282;SDS011;50497;50.720;-2.084;2024-03-22T13:17:44;0.15;;;0.15;;
64282;SDS011;50497;50.720;-2.084;2024-03-22T13:20:10;0.10;;;0.10;;
64282;SDS011;50497;50.720;-2.084;2024-03-22T13:22:38;0.20;;;0.20;;
64282;SDS011;50497;50.720;-2.084;2024-03-22T13:25:04;0.10;;;0.10;;
64282;SDS011;50497;50.720;-2.084;2024-03-22T13:27:32;0.13;;;0.13;;
64282;SDS011;50497;50.720;-2.084;2024-03-22T13:29:59;0.20;;;0.20;;
64282;SDS011;50497;50.720;-2.084;2024-03-22T13:32:25;0.20;;;0.20;;
64282;SDS011;50497;50.720;-2.084;2024-03-22T13:34:50;0.10;;;0.10;;
64282;SDS011;50497;50.720;-2.084;2024-03-22T13:37:16;0.20;;;0.20;;
64282;SDS011;50497;50.720;-2.084;2024-03-22T13:39:41;0.20;;;0.20;;
64282;SDS011;50497;50.720;-2.084;2024-03-22T13:42:07;0.20;;;0.20;;
64282;SDS011;50497;50.720;-2.084;2024-03-22T13:44:32;0.20;;;0.20;;
64282;SDS011;50497;50.720;-2.084;2024-03-22T13:46:59;0.20;;;0.20;;
64282;SDS011;50497;50.720;-2.084;2024-03-22T13:49:24;0.10;;;0.10;;
64282;SDS011;50497;50.720;-2.084;2024-03-22T13:51:50;0.00;;;0.00;;
64282;SDS011;50497;50.720;-2.084;2024-03-22T13:54:15;0.10;;;0.10;;
64282;SDS011;50497;50.720;-2.084;2024-03-22T13:56:41;0.00;;;0.00;;
64282;SDS011;50497;50.720;-2.084;2024-03-22T13:59:07;0.08;;;0.08;;
64282;SDS011;50497;50.720;-2.084;2024-03-22T14:01:36;0.03;;;0.03;;
64282;SDS011;50497;50.720;-2.084;2024-03-22T14:04:04;0.00;;;0.00;;
64282;SDS011;50497;50.720;-2.084;2024-03-22T14:06:30;0.08;;;0.08;;
64282;SDS011;50497;50.720;-2.084;2024-03-22T14:08:57;0.10;;;0.10;;
64282;SDS011;50497;50.720;-2.084;2024-03-22T14:11:26;0.00;;;0.00;;
64282;SDS011;50497;50.720;-2.084;2024-03-22T14:13:55;0.10;;;0.10;;
64282;SDS011;50497;50.720;-2.084;2024-03-22T14:16:24;0.10;;;0.10;;
64282;SDS011;50497;50.720;-2.084;2024-03-22T14:18:49;0.10;;;0.10;;
64282;SDS011;50497;50.720;-2.084;2024-03-22T14:21:16;0.10;;;0.10;;
64282;SDS011;50497;50.720;-2.084;2024-03-22T14:23:47;0.10;;;0.10;;
64282;SDS011;50497;50.720;-2.084;2024-03-22T14:26:15;0.10;;;0.10;;
64282;SDS011;50497;50.720;-2.084;2024-03-22T14:28:41;0.10;;;0.10;;
64282;SDS011;50497;50.720;-2.084;2024-03-22T14:31:07;0.10;;;0.10;;
64282;SDS011;50497;50.720;-2.084;2024-03-22T14:33:35;0.10;;;0.10;;
64282;SDS011;50497;50.720;-2.084;2024-03-22T14:38:27;0.08;;;0.08;;
64282;SDS011;50497;50.720;-2.084;2024-03-22T14:40:54;0.00;;;0.00;;